AAL1218 KMIA-MWCR
Flight info
| Callsign | AAL1218 |
|---|---|
| Flight time | 1h 7m |
| Altitude | 39000 |
| Route | MAYNR3 FUNDI UM335 ALVEK UM328 UCL UZ313 LACET UL465 GCM |
| Aircraft | B772/H-SDE2E3FGHIJ5LORVWXY/LB1D1 |
Departure
| Time | 2026-04-22 13:54 |
|---|---|
| Airport | Miami International Airport (KMIA) |
Arrival
| Time | 2026-04-22 15:01 |
|---|---|
| Airport | Owen Roberts International Airport (MWCR) |
| Time | Latitude | Longitude | Altitude | Speed | Heading |
|---|---|---|---|---|---|
| 2026-04-22 13:27 | 25.79452 | -80.28018 | 21 ft | 0 kts | 36° |
| 2026-04-22 13:36 | 25.79444 | -80.28024 | 22 ft | 2 kts | 36° |
| 2026-04-22 13:37 | 25.79431 | -80.28035 | 24 ft | 2 kts | 36° |
| 2026-04-22 13:37 | 25.79428 | -80.28037 | 22 ft | 2 kts | 36° |
| 2026-04-22 13:37 | 25.79415 | -80.28047 | 24 ft | 2 kts | 57° |
| 2026-04-22 13:37 | 25.79408 | -80.28063 | 24 ft | 2 kts | 62° |
| 2026-04-22 13:38 | 25.79400 | -80.28079 | 24 ft | 2 kts | 62° |
| 2026-04-22 13:38 | 25.79385 | -80.28111 | 25 ft | 2 kts | 64° |
| 2026-04-22 13:38 | 25.79378 | -80.28127 | 23 ft | 2 kts | 66° |
| 2026-04-22 13:39 | 25.79374 | -80.28138 | 24 ft | 2 kts | 66° |
| 2026-04-22 13:39 | 25.79369 | -80.28150 | 25 ft | 2 kts | 66° |
| 2026-04-22 13:39 | 25.79364 | -80.28167 | 23 ft | 2 kts | 92° |
| 2026-04-22 13:40 | 25.79366 | -80.28184 | 25 ft | 2 kts | 98° |
| 2026-04-22 13:40 | 25.79368 | -80.28202 | 24 ft | 2 kts | 95° |
| 2026-04-22 13:40 | 25.79367 | -80.28220 | 25 ft | 2 kts | 67° |
| 2026-04-22 13:40 | 25.79361 | -80.28236 | 24 ft | 2 kts | 67° |
| 2026-04-22 13:41 | 25.79355 | -80.28253 | 25 ft | 2 kts | 56° |
| 2026-04-22 13:41 | 25.79344 | -80.28266 | 24 ft | 2 kts | 45° |
| 2026-04-22 13:41 | 25.79333 | -80.28279 | 24 ft | 2 kts | 45° |
| 2026-04-22 13:41 | 25.79322 | -80.28292 | 24 ft | 2 kts | 41° |
| 2026-04-22 13:42 | 25.79310 | -80.28304 | 23 ft | 2 kts | 41° |
| 2026-04-22 13:42 | 25.79298 | -80.28316 | 25 ft | 2 kts | 41° |
| 2026-04-22 13:42 | 25.79285 | -80.28327 | 24 ft | 2 kts | 41° |
| 2026-04-22 13:42 | 25.79273 | -80.28339 | 24 ft | 2 kts | 41° |
| 2026-04-22 13:43 | 25.79261 | -80.28351 | 24 ft | 2 kts | 41° |
| 2026-04-22 13:43 | 25.79249 | -80.28363 | 23 ft | 2 kts | 41° |
| 2026-04-22 13:43 | 25.79237 | -80.28375 | 24 ft | 2 kts | 41° |
| 2026-04-22 13:43 | 25.79225 | -80.28387 | 23 ft | 2 kts | 41° |
| 2026-04-22 13:44 | 25.79212 | -80.28397 | 25 ft | 2 kts | 15° |
| 2026-04-22 13:44 | 25.79196 | -80.28398 | 23 ft | 2 kts | 338° |
| 2026-04-22 13:44 | 25.79188 | -80.28394 | 24 ft | 0 kts | 327° |
| 2026-04-22 13:45 | 25.79198 | -80.28402 | 23 ft | 7 kts | 327° |
| 2026-04-22 13:45 | 25.79242 | -80.28459 | 19 ft | 11 kts | 303° |
| 2026-04-22 13:45 | 25.79270 | -80.28510 | 19 ft | 0 kts | 300° |
| 2026-04-22 13:45 | 25.79280 | -80.28584 | 19 ft | 14 kts | 245° |
| 2026-04-22 13:46 | 25.79257 | -80.28657 | 20 ft | 11 kts | 281° |
| 2026-04-22 13:46 | 25.79304 | -80.28761 | 19 ft | 16 kts | 299° |
| 2026-04-22 13:46 | 25.79358 | -80.28868 | 19 ft | 16 kts | 299° |
| 2026-04-22 13:46 | 25.79412 | -80.28975 | 19 ft | 16 kts | 300° |
| 2026-04-22 13:47 | 25.79468 | -80.29082 | 19 ft | 16 kts | 300° |
| 2026-04-22 13:47 | 25.79522 | -80.29187 | 20 ft | 16 kts | 300° |
| 2026-04-22 13:47 | 25.79576 | -80.29295 | 21 ft | 16 kts | 299° |
| 2026-04-22 13:47 | 25.79630 | -80.29402 | 19 ft | 16 kts | 299° |
| 2026-04-22 13:48 | 25.79686 | -80.29510 | 21 ft | 16 kts | 299° |
| 2026-04-22 13:48 | 25.79741 | -80.29617 | 19 ft | 16 kts | 299° |
| 2026-04-22 13:48 | 25.79795 | -80.29724 | 19 ft | 16 kts | 300° |
| 2026-04-22 13:48 | 25.79850 | -80.29831 | 19 ft | 16 kts | 299° |
| 2026-04-22 13:49 | 25.79902 | -80.29932 | 18 ft | 12 kts | 300° |
| 2026-04-22 13:49 | 25.79914 | -80.29957 | 18 ft | 0 kts | 300° |
| 2026-04-22 13:49 | 25.79919 | -80.29965 | 18 ft | 0 kts | 299° |
| 2026-04-22 13:52 | 25.79920 | -80.29968 | 18 ft | 5 kts | 299° |
| 2026-04-22 13:52 | 25.79956 | -80.30038 | 18 ft | 11 kts | 300° |
| 2026-04-22 13:52 | 25.80001 | -80.30112 | 18 ft | 12 kts | 324° |
| 2026-04-22 13:52 | 25.80066 | -80.30089 | 18 ft | 12 kts | 69° |
| 2026-04-22 13:53 | 25.80073 | -80.30032 | 17 ft | 0 kts | 88° |
| 2026-04-22 13:53 | 25.80087 | -80.29731 | 18 ft | 94 kts | 88° |
| 2026-04-22 13:54 | 25.80139 | -80.28618 | 102 ft | 185 kts | 86° |
| 2026-04-22 13:54 | 25.80212 | -80.27079 | 1118 ft | 206 kts | 86° |
| 2026-04-22 13:54 | 25.80296 | -80.25474 | 2668 ft | 214 kts | 86° |
| 2026-04-22 13:54 | 25.80286 | -80.23800 | 4135 ft | 218 kts | 102° |
| 2026-04-22 13:55 | 25.79539 | -80.22282 | 5394 ft | 232 kts | 140° |
| 2026-04-22 13:55 | 25.78110 | -80.21398 | 6411 ft | 246 kts | 158° |
| 2026-04-22 13:55 | 25.76461 | -80.20594 | 6772 ft | 269 kts | 156° |
| 2026-04-22 13:55 | 25.74729 | -80.19727 | 7572 ft | 277 kts | 156° |
| 2026-04-22 13:56 | 25.72892 | -80.19084 | 8258 ft | 279 kts | 173° |
| 2026-04-22 13:56 | 25.70925 | -80.18975 | 9050 ft | 285 kts | 180° |
| 2026-04-22 13:56 | 25.68932 | -80.18958 | 10021 ft | 287 kts | 180° |
| 2026-04-22 13:56 | 25.66903 | -80.19006 | 10489 ft | 308 kts | 185° |
| 2026-04-22 13:57 | 25.64695 | -80.19309 | 10979 ft | 327 kts | 188° |
| 2026-04-22 13:57 | 25.62410 | -80.19704 | 11798 ft | 332 kts | 193° |
| 2026-04-22 13:57 | 25.60275 | -80.20718 | 12478 ft | 338 kts | 211° |
| 2026-04-22 13:57 | 25.58218 | -80.22069 | 13381 ft | 345 kts | 211° |
| 2026-04-22 13:58 | 25.56140 | -80.23415 | 14461 ft | 347 kts | 210° |
| 2026-04-22 13:58 | 25.54031 | -80.24770 | 15458 ft | 352 kts | 210° |
| 2026-04-22 13:58 | 25.51894 | -80.26135 | 16387 ft | 357 kts | 210° |
| 2026-04-22 13:58 | 25.49724 | -80.27514 | 17265 ft | 363 kts | 210° |
| 2026-04-22 13:59 | 25.47518 | -80.28911 | 18146 ft | 367 kts | 210° |
| 2026-04-22 13:59 | 25.45279 | -80.30326 | 19003 ft | 372 kts | 210° |
| 2026-04-22 13:59 | 25.43042 | -80.31738 | 19833 ft | 377 kts | 210° |
| 2026-04-22 13:59 | 25.40750 | -80.33183 | 20644 ft | 382 kts | 210° |
| 2026-04-22 14:00 | 25.38395 | -80.34667 | 21472 ft | 387 kts | 210° |
| 2026-04-22 14:00 | 25.36037 | -80.36152 | 22265 ft | 392 kts | 210° |
| 2026-04-22 14:00 | 25.33655 | -80.37652 | 23044 ft | 396 kts | 210° |
| 2026-04-22 14:00 | 25.32390 | -80.38449 | 23451 ft | 399 kts | 210° |
| 2026-04-22 14:01 | 25.29953 | -80.39982 | 24188 ft | 404 kts | 210° |
| 2026-04-22 14:01 | 25.27499 | -80.41526 | 24903 ft | 408 kts | 210° |
| 2026-04-22 14:01 | 25.25008 | -80.43091 | 25606 ft | 413 kts | 210° |
| 2026-04-22 14:01 | 25.22480 | -80.44537 | 26263 ft | 416 kts | 202° |
| 2026-04-22 14:02 | 25.19714 | -80.45556 | 26874 ft | 422 kts | 196° |
| 2026-04-22 14:02 | 25.16862 | -80.46426 | 27493 ft | 426 kts | 195° |
| 2026-04-22 14:02 | 25.13983 | -80.47279 | 28112 ft | 430 kts | 195° |
| 2026-04-22 14:02 | 25.11083 | -80.48160 | 28703 ft | 434 kts | 196° |
| 2026-04-22 14:03 | 25.08171 | -80.49073 | 29246 ft | 438 kts | 196° |
| 2026-04-22 14:03 | 25.05231 | -80.50019 | 29766 ft | 441 kts | 197° |
| 2026-04-22 14:03 | 25.02274 | -80.50983 | 30254 ft | 445 kts | 197° |
| 2026-04-22 14:03 | 24.99279 | -80.51964 | 30752 ft | 448 kts | 197° |
| 2026-04-22 14:04 | 24.96273 | -80.52949 | 31204 ft | 452 kts | 197° |
| 2026-04-22 14:04 | 24.93275 | -80.53930 | 31638 ft | 455 kts | 197° |
| 2026-04-22 14:04 | 24.90234 | -80.54923 | 32060 ft | 458 kts | 197° |
| 2026-04-22 14:04 | 24.87163 | -80.55924 | 32460 ft | 461 kts | 197° |
| 2026-04-22 14:05 | 24.84126 | -80.57051 | 32770 ft | 462 kts | 206° |
| 2026-04-22 14:05 | 24.81432 | -80.58997 | 33006 ft | 467 kts | 223° |
| 2026-04-22 14:05 | 24.77673 | -80.64796 | 33647 ft | 469 kts | 239° |
| 2026-04-22 14:06 | 24.75964 | -80.67874 | 33959 ft | 472 kts | 238° |
| 2026-04-22 14:06 | 24.74224 | -80.70955 | 34272 ft | 474 kts | 238° |
| 2026-04-22 14:06 | 24.72462 | -80.74027 | 34609 ft | 476 kts | 238° |
| 2026-04-22 14:06 | 24.70678 | -80.77107 | 34932 ft | 478 kts | 237° |
| 2026-04-22 14:07 | 24.68885 | -80.80187 | 35327 ft | 477 kts | 237° |
| 2026-04-22 14:07 | 24.67098 | -80.83252 | 35758 ft | 475 kts | 237° |
| 2026-04-22 14:07 | 24.65313 | -80.86316 | 36184 ft | 474 kts | 237° |
| 2026-04-22 14:07 | 24.63509 | -80.89411 | 36554 ft | 474 kts | 237° |
| 2026-04-22 14:08 | 24.61731 | -80.92464 | 36879 ft | 474 kts | 237° |
| 2026-04-22 14:08 | 24.59946 | -80.95523 | 37202 ft | 474 kts | 237° |
| 2026-04-22 14:08 | 24.57894 | -80.98334 | 37387 ft | 475 kts | 222° |
| 2026-04-22 14:08 | 24.55444 | -81.00220 | 37590 ft | 477 kts | 206° |
| 2026-04-22 14:09 | 24.52299 | -81.01489 | 37925 ft | 476 kts | 192° |
| 2026-04-22 14:09 | 24.49016 | -81.01831 | 38217 ft | 474 kts | 179° |
| 2026-04-22 14:09 | 24.45750 | -81.01764 | 38423 ft | 476 kts | 179° |
| 2026-04-22 14:09 | 24.42423 | -81.01665 | 38666 ft | 477 kts | 179° |
| 2026-04-22 14:10 | 24.39098 | -81.01574 | 38936 ft | 478 kts | 179° |
| 2026-04-22 14:10 | 24.32403 | -81.01460 | 38994 ft | 481 kts | 180° |
| 2026-04-22 14:11 | 24.25743 | -81.01402 | 38994 ft | 475 kts | 180° |
| 2026-04-22 14:11 | 24.19130 | -81.01355 | 39006 ft | 475 kts | 180° |
| 2026-04-22 14:12 | 24.12513 | -81.01303 | 39009 ft | 475 kts | 180° |
| 2026-04-22 14:12 | 24.05894 | -81.01248 | 39004 ft | 476 kts | 180° |
| 2026-04-22 14:13 | 23.99287 | -81.01192 | 39002 ft | 476 kts | 179° |
| 2026-04-22 14:13 | 23.92651 | -81.00956 | 39000 ft | 477 kts | 178° |
| 2026-04-22 14:14 | 23.85995 | -81.00628 | 38996 ft | 477 kts | 178° |
| 2026-04-22 14:14 | 23.79377 | -81.00319 | 39000 ft | 477 kts | 178° |
| 2026-04-22 14:15 | 23.72750 | -81.00032 | 39000 ft | 477 kts | 178° |
| 2026-04-22 14:15 | 23.66147 | -80.99751 | 39004 ft | 477 kts | 178° |
| 2026-04-22 14:16 | 23.59516 | -80.99468 | 38998 ft | 477 kts | 178° |
| 2026-04-22 14:16 | 23.52883 | -80.99185 | 38996 ft | 476 kts | 178° |
| 2026-04-22 14:17 | 23.46254 | -80.98902 | 39001 ft | 476 kts | 178° |
| 2026-04-22 14:17 | 23.39621 | -80.98618 | 39006 ft | 476 kts | 178° |
| 2026-04-22 14:18 | 23.32985 | -80.98335 | 39007 ft | 476 kts | 178° |
| 2026-04-22 14:18 | 23.26356 | -80.98053 | 38999 ft | 476 kts | 178° |
| 2026-04-22 14:19 | 23.19776 | -80.97788 | 39003 ft | 476 kts | 178° |
| 2026-04-22 14:19 | 23.13147 | -80.97522 | 38998 ft | 476 kts | 178° |
| 2026-04-22 14:20 | 23.03159 | -80.97490 | 39549 ft | 478 kts | 188° |
| 2026-04-22 14:20 | 22.99902 | -80.98117 | 39870 ft | 477 kts | 193° |
| 2026-04-22 14:20 | 22.96716 | -80.99100 | 40167 ft | 475 kts | 200° |
| 2026-04-22 14:21 | 22.90541 | -81.01594 | 40645 ft | 476 kts | 201° |
| 2026-04-22 14:21 | 22.87444 | -81.02874 | 40887 ft | 476 kts | 201° |
| 2026-04-22 14:22 | 22.81252 | -81.05407 | 41347 ft | 476 kts | 201° |
| 2026-04-22 14:22 | 22.78155 | -81.06658 | 41571 ft | 476 kts | 200° |
| 2026-04-22 14:22 | 22.71936 | -81.09149 | 41924 ft | 477 kts | 200° |
| 2026-04-22 14:23 | 22.69825 | -81.09993 | 41946 ft | 479 kts | 200° |
| 2026-04-22 14:23 | 22.62548 | -81.12890 | 41990 ft | 477 kts | 200° |
| 2026-04-22 14:24 | 22.57345 | -81.14962 | 41998 ft | 474 kts | 200° |
| 2026-04-22 14:24 | 22.51158 | -81.17428 | 42001 ft | 473 kts | 200° |
| 2026-04-22 14:25 | 22.45014 | -81.19875 | 42002 ft | 473 kts | 200° |
| 2026-04-22 14:25 | 22.38838 | -81.22333 | 42005 ft | 473 kts | 200° |
| 2026-04-22 14:26 | 22.32647 | -81.24793 | 42002 ft | 474 kts | 200° |
| 2026-04-22 14:26 | 22.26429 | -81.27262 | 42003 ft | 475 kts | 200° |
| 2026-04-22 14:27 | 22.20211 | -81.29728 | 42001 ft | 476 kts | 200° |
| 2026-04-22 14:27 | 22.13985 | -81.32196 | 42002 ft | 477 kts | 200° |
| 2026-04-22 14:28 | 22.07742 | -81.34667 | 42001 ft | 477 kts | 200° |
| 2026-04-22 14:28 | 22.01548 | -81.37118 | 42001 ft | 477 kts | 200° |
| 2026-04-22 14:29 | 21.95292 | -81.39590 | 42000 ft | 476 kts | 200° |
| 2026-04-22 14:29 | 21.89107 | -81.42032 | 42001 ft | 476 kts | 200° |
| 2026-04-22 14:30 | 21.82887 | -81.44486 | 42001 ft | 476 kts | 200° |
| 2026-04-22 14:30 | 21.76675 | -81.46934 | 42001 ft | 475 kts | 200° |
| 2026-04-22 14:31 | 21.70458 | -81.49382 | 42001 ft | 475 kts | 200° |
| 2026-04-22 14:31 | 21.64248 | -81.51826 | 42001 ft | 475 kts | 200° |
| 2026-04-22 14:32 | 21.57919 | -81.53885 | 42004 ft | 475 kts | 191° |
| 2026-04-22 14:32 | 21.51401 | -81.55111 | 42006 ft | 476 kts | 189° |
| 2026-04-22 14:33 | 21.44861 | -81.56284 | 42003 ft | 476 kts | 190° |
| 2026-04-22 14:33 | 21.38328 | -81.57489 | 42002 ft | 476 kts | 190° |
| 2026-04-22 14:34 | 21.31840 | -81.58710 | 42001 ft | 476 kts | 190° |
| 2026-04-22 14:34 | 21.25305 | -81.59945 | 42001 ft | 476 kts | 190° |
| 2026-04-22 14:35 | 21.18775 | -81.61177 | 42001 ft | 476 kts | 190° |
| 2026-04-22 14:35 | 21.12244 | -81.62407 | 42001 ft | 476 kts | 190° |
| 2026-04-22 14:36 | 21.05716 | -81.63634 | 42001 ft | 476 kts | 190° |
| 2026-04-22 14:36 | 20.99194 | -81.64860 | 42001 ft | 476 kts | 190° |
| 2026-04-22 14:37 | 20.92726 | -81.66074 | 41890 ft | 466 kts | 190° |
| 2026-04-22 14:37 | 20.89577 | -81.66664 | 41339 ft | 451 kts | 190° |
| 2026-04-22 14:37 | 20.86514 | -81.67238 | 40199 ft | 445 kts | 190° |
| 2026-04-22 14:37 | 20.83444 | -81.67814 | 38633 ft | 451 kts | 190° |
| 2026-04-22 14:38 | 20.80392 | -81.68386 | 38066 ft | 432 kts | 190° |
| 2026-04-22 14:38 | 20.77495 | -81.68928 | 37639 ft | 419 kts | 190° |
| 2026-04-22 14:38 | 20.74618 | -81.69467 | 37283 ft | 424 kts | 190° |
| 2026-04-22 14:38 | 20.71656 | -81.70022 | 36887 ft | 440 kts | 190° |
| 2026-04-22 14:39 | 20.68592 | -81.70595 | 36450 ft | 449 kts | 190° |
| 2026-04-22 14:39 | 20.65520 | -81.71170 | 35997 ft | 447 kts | 190° |
| 2026-04-22 14:39 | 20.62472 | -81.71739 | 35535 ft | 444 kts | 190° |
| 2026-04-22 14:40 | 20.56416 | -81.72870 | 34604 ft | 439 kts | 190° |
| 2026-04-22 14:40 | 20.53409 | -81.73432 | 34140 ft | 436 kts | 190° |
| 2026-04-22 14:40 | 20.50431 | -81.73987 | 33684 ft | 434 kts | 190° |
| 2026-04-22 14:40 | 20.47466 | -81.74541 | 33223 ft | 431 kts | 190° |
| 2026-04-22 14:41 | 20.44519 | -81.75090 | 32763 ft | 429 kts | 190° |
| 2026-04-22 14:41 | 20.41591 | -81.75636 | 32307 ft | 426 kts | 190° |
| 2026-04-22 14:41 | 20.38712 | -81.76173 | 31863 ft | 424 kts | 190° |
| 2026-04-22 14:41 | 20.35811 | -81.76713 | 31399 ft | 421 kts | 190° |
| 2026-04-22 14:42 | 20.32935 | -81.77249 | 30946 ft | 419 kts | 190° |
| 2026-04-22 14:42 | 20.30069 | -81.77782 | 30495 ft | 416 kts | 190° |
| 2026-04-22 14:42 | 20.27220 | -81.78312 | 30052 ft | 414 kts | 190° |
| 2026-04-22 14:42 | 20.24392 | -81.78839 | 29596 ft | 412 kts | 190° |
| 2026-04-22 14:43 | 20.21574 | -81.79362 | 29117 ft | 410 kts | 190° |
| 2026-04-22 14:43 | 20.18768 | -81.79882 | 28634 ft | 409 kts | 190° |
| 2026-04-22 14:43 | 20.15966 | -81.80394 | 28145 ft | 407 kts | 190° |
| 2026-04-22 14:43 | 20.13170 | -81.80902 | 27671 ft | 406 kts | 190° |
| 2026-04-22 14:44 | 20.10393 | -81.81406 | 27192 ft | 405 kts | 190° |
| 2026-04-22 14:44 | 20.07622 | -81.81911 | 26718 ft | 403 kts | 190° |
| 2026-04-22 14:44 | 20.04862 | -81.82414 | 26250 ft | 401 kts | 190° |
| 2026-04-22 14:44 | 20.02114 | -81.82771 | 25767 ft | 397 kts | 180° |
| 2026-04-22 14:45 | 19.99395 | -81.82403 | 25317 ft | 396 kts | 165° |
| 2026-04-22 14:45 | 19.96838 | -81.81354 | 24868 ft | 393 kts | 151° |
| 2026-04-22 14:45 | 19.94504 | -81.79869 | 24422 ft | 389 kts | 148° |
| 2026-04-22 14:45 | 19.92211 | -81.78348 | 23970 ft | 388 kts | 148° |
| 2026-04-22 14:46 | 19.89929 | -81.76824 | 23514 ft | 387 kts | 148° |
| 2026-04-22 14:46 | 19.87641 | -81.75303 | 23072 ft | 386 kts | 148° |
| 2026-04-22 14:46 | 19.85360 | -81.73797 | 22614 ft | 385 kts | 148° |
| 2026-04-22 14:46 | 19.83105 | -81.72318 | 22148 ft | 385 kts | 148° |
| 2026-04-22 14:47 | 19.80824 | -81.70828 | 21691 ft | 384 kts | 148° |
| 2026-04-22 14:47 | 19.78544 | -81.69343 | 21265 ft | 382 kts | 149° |
| 2026-04-22 14:47 | 19.76281 | -81.67872 | 20827 ft | 381 kts | 149° |
| 2026-04-22 14:47 | 19.74015 | -81.66400 | 20373 ft | 380 kts | 149° |
| 2026-04-22 14:48 | 19.71764 | -81.64939 | 19932 ft | 379 kts | 149° |
| 2026-04-22 14:48 | 19.69516 | -81.63480 | 19485 ft | 378 kts | 149° |
| 2026-04-22 14:48 | 19.67267 | -81.62021 | 19029 ft | 378 kts | 149° |
| 2026-04-22 14:48 | 19.65030 | -81.60570 | 18575 ft | 377 kts | 149° |
| 2026-04-22 14:49 | 19.62790 | -81.59118 | 18112 ft | 376 kts | 149° |
| 2026-04-22 14:49 | 19.60529 | -81.57754 | 17637 ft | 372 kts | 156° |
| 2026-04-22 14:49 | 19.58147 | -81.56953 | 17174 ft | 346 kts | 172° |
| 2026-04-22 14:49 | 19.55839 | -81.56961 | 16758 ft | 321 kts | 188° |
| 2026-04-22 14:50 | 19.53749 | -81.57384 | 16438 ft | 298 kts | 193° |
| 2026-04-22 14:50 | 19.51767 | -81.57877 | 16199 ft | 280 kts | 194° |
| 2026-04-22 14:50 | 19.49918 | -81.58352 | 16016 ft | 274 kts | 194° |
| 2026-04-22 14:50 | 19.48025 | -81.58844 | 15831 ft | 288 kts | 194° |
| 2026-04-22 14:51 | 19.46099 | -81.59347 | 15242 ft | 282 kts | 194° |
| 2026-04-22 14:51 | 19.44218 | -81.59879 | 14479 ft | 278 kts | 198° |
| 2026-04-22 14:51 | 19.42360 | -81.60521 | 13659 ft | 276 kts | 199° |
| 2026-04-22 14:51 | 19.40533 | -81.61176 | 12786 ft | 277 kts | 199° |
| 2026-04-22 14:52 | 19.38736 | -81.61826 | 11936 ft | 277 kts | 199° |
| 2026-04-22 14:52 | 19.36916 | -81.62486 | 11078 ft | 276 kts | 199° |
| 2026-04-22 14:52 | 19.35090 | -81.63150 | 10192 ft | 275 kts | 199° |
| 2026-04-22 14:52 | 19.33283 | -81.63808 | 9334 ft | 274 kts | 199° |
| 2026-04-22 14:53 | 19.31492 | -81.64474 | 8455 ft | 271 kts | 203° |
| 2026-04-22 14:53 | 19.29954 | -81.65591 | 7565 ft | 269 kts | 227° |
| 2026-04-22 14:53 | 19.28822 | -81.67148 | 6702 ft | 265 kts | 241° |
| 2026-04-22 14:53 | 19.27800 | -81.68747 | 5830 ft | 263 kts | 223° |
| 2026-04-22 14:54 | 19.26226 | -81.69701 | 4943 ft | 262 kts | 194° |
| 2026-04-22 14:54 | 19.24430 | -81.69734 | 4082 ft | 261 kts | 166° |
| 2026-04-22 14:54 | 19.22832 | -81.68848 | 3201 ft | 260 kts | 137° |
| 2026-04-22 14:54 | 19.21841 | -81.67271 | 2340 ft | 259 kts | 108° |
| 2026-04-22 14:55 | 19.21537 | -81.65460 | 1812 ft | 245 kts | 90° |
| 2026-04-22 14:55 | 19.21771 | -81.63744 | 1588 ft | 229 kts | 75° |
| 2026-04-22 14:55 | 19.22203 | -81.62130 | 1451 ft | 229 kts | 73° |
| 2026-04-22 14:55 | 19.22663 | -81.60512 | 1452 ft | 230 kts | 73° |
| 2026-04-22 14:56 | 19.23123 | -81.58895 | 1440 ft | 227 kts | 73° |
| 2026-04-22 14:56 | 19.23572 | -81.57301 | 1431 ft | 225 kts | 73° |
| 2026-04-22 14:56 | 19.24013 | -81.55717 | 1475 ft | 225 kts | 73° |
| 2026-04-22 14:56 | 19.24431 | -81.54210 | 1420 ft | 199 kts | 73° |
| 2026-04-22 14:57 | 19.24794 | -81.52891 | 1428 ft | 172 kts | 73° |
| 2026-04-22 14:57 | 19.25101 | -81.51769 | 1415 ft | 148 kts | 73° |
| 2026-04-22 14:57 | 19.25374 | -81.50772 | 1439 ft | 137 kts | 73° |
| 2026-04-22 14:57 | 19.25640 | -81.49797 | 1442 ft | 137 kts | 73° |
| 2026-04-22 14:58 | 19.25900 | -81.48842 | 1431 ft | 136 kts | 73° |
| 2026-04-22 14:58 | 19.26162 | -81.47879 | 1429 ft | 135 kts | 73° |
| 2026-04-22 14:58 | 19.26421 | -81.46929 | 1429 ft | 134 kts | 73° |
| 2026-04-22 14:58 | 19.26680 | -81.45976 | 1431 ft | 134 kts | 73° |
| 2026-04-22 14:59 | 19.26941 | -81.45013 | 1436 ft | 134 kts | 73° |
| 2026-04-22 14:59 | 19.27193 | -81.44059 | 1437 ft | 135 kts | 75° |
| 2026-04-22 14:59 | 19.27424 | -81.43076 | 1409 ft | 137 kts | 77° |
| 2026-04-22 14:59 | 19.27682 | -81.42078 | 1216 ft | 140 kts | 72° |
| 2026-04-22 15:00 | 19.27993 | -81.41113 | 916 ft | 136 kts | 73° |
| 2026-04-22 15:00 | 19.28234 | -81.40163 | 731 ft | 134 kts | 75° |
| 2026-04-22 15:00 | 19.28463 | -81.39209 | 512 ft | 135 kts | 76° |
| 2026-04-22 15:00 | 19.28692 | -81.38254 | 307 ft | 132 kts | 75° |
| 2026-04-22 15:01 | 19.28913 | -81.37329 | 134 ft | 128 kts | 76° |
| 2026-04-22 15:01 | 19.29060 | -81.36704 | 54 ft | 132 kts | 76° |
| 2026-04-22 15:01 | 19.29267 | -81.35822 | 19 ft | 107 kts | 76° |
| 2026-04-22 15:01 | 19.29405 | -81.35242 | 20 ft | 36 kts | 76° |
| 2026-04-22 15:02 | 19.29451 | -81.35042 | 24 ft | 30 kts | 76° |
| 2026-04-22 15:02 | 19.29479 | -81.34925 | 23 ft | 4 kts | 76° |
| 2026-04-22 15:02 | 19.29504 | -81.34891 | 28 ft | 8 kts | 20° |
| 2026-04-22 15:02 | 19.29554 | -81.34975 | 24 ft | 20 kts | 264° |
| 2026-04-22 15:03 | 19.29525 | -81.35120 | 24 ft | 20 kts | 257° |
| 2026-04-22 15:03 | 19.29483 | -81.35286 | 21 ft | 25 kts | 255° |
| 2026-04-22 15:03 | 19.29440 | -81.35465 | 20 ft | 25 kts | 256° |
| 2026-04-22 15:03 | 19.29436 | -81.35573 | 21 ft | 12 kts | 315° |
| 2026-04-22 15:04 | 19.29466 | -81.35654 | 20 ft | 3 kts | 270° |
| 2026-04-22 15:04 | 19.29495 | -81.35681 | 23 ft | 0 kts | 337° |
| 2026-04-22 15:04 | 19.29509 | -81.35688 | 21 ft | 0 kts | 344° |